sensor_id;sensor_type;location;lat;lon;timestamp;temperature;humidity
75164;HTU21D;63746;45.402;37.922;2023-04-06T00:02:12;12.47;66.79
75164;HTU21D;63746;45.402;37.922;2023-04-06T00:04:38;12.45;66.83
75164;HTU21D;63746;45.402;37.922;2023-04-06T00:07:04;12.42;66.85
75164;HTU21D;63746;45.402;37.922;2023-04-06T00:09:30;12.40;66.81
75164;HTU21D;63746;45.402;37.922;2023-04-06T00:11:56;12.38;66.92
75164;HTU21D;63746;45.402;37.922;2023-04-06T00:14:23;12.35;66.86
75164;HTU21D;63746;45.402;37.922;2023-04-06T00:16:49;12.35;66.92
75164;HTU21D;63746;45.402;37.922;2023-04-06T00:19:15;12.32;66.91
75164;HTU21D;63746;45.402;37.922;2023-04-06T00:21:41;12.31;66.90
75164;HTU21D;63746;45.402;37.922;2023-04-06T00:24:07;12.30;66.97
75164;HTU21D;63746;45.402;37.922;2023-04-06T00:26:33;12.29;66.94
75164;HTU21D;63746;45.402;37.922;2023-04-06T00:28:59;12.29;66.98
75164;HTU21D;63746;45.402;37.922;2023-04-06T00:31:25;12.28;66.92
75164;HTU21D;63746;45.402;37.922;2023-04-06T00:33:50;12.27;67.07
75164;HTU21D;63746;45.402;37.922;2023-04-06T00:36:16;12.26;66.96
75164;HTU21D;63746;45.402;37.922;2023-04-06T00:38:43;12.23;66.94
75164;HTU21D;63746;45.402;37.922;2023-04-06T00:41:09;12.23;66.94
75164;HTU21D;63746;45.402;37.922;2023-04-06T00:43:35;12.20;66.96
75164;HTU21D;63746;45.402;37.922;2023-04-06T00:46:01;12.19;67.04
75164;HTU21D;63746;45.402;37.922;2023-04-06T00:48:27;12.16;66.98
75164;HTU21D;63746;45.402;37.922;2023-04-06T00:50:53;12.15;66.99
75164;HTU21D;63746;45.402;37.922;2023-04-06T00:53:19;12.14;67.21
75164;HTU21D;63746;45.402;37.922;2023-04-06T00:55:45;12.12;67.04
75164;HTU21D;63746;45.402;37.922;2023-04-06T00:58:11;12.11;67.28
75164;HTU21D;63746;45.402;37.922;2023-04-06T01:00:46;12.08;67.20
75164;HTU21D;63746;45.402;37.922;2023-04-06T01:03:16;12.07;67.33
75164;HTU21D;63746;45.402;37.922;2023-04-06T01:05:43;12.07;67.18
75164;HTU21D;63746;45.402;37.922;2023-04-06T01:08:20;12.06;67.23
75164;HTU21D;63746;45.402;37.922;2023-04-06T01:10:47;12.08;67.23
75164;HTU21D;63746;45.402;37.922;2023-04-06T01:13:28;12.11;67.36
75164;HTU21D;63746;45.402;37.922;2023-04-06T01:16:00;12.11;67.22
75164;HTU21D;63746;45.402;37.922;2023-04-06T01:18:32;12.12;67.18
75164;HTU21D;63746;45.402;37.922;2023-04-06T01:21:18;12.13;67.24
75164;HTU21D;63746;45.402;37.922;2023-04-06T01:24:16;12.10;67.11
75164;HTU21D;63746;45.402;37.922;2023-04-06T01:27:00;12.06;67.65
75164;HTU21D;63746;45.402;37.922;2023-04-06T01:29:34;12.02;67.25
75164;HTU21D;63746;45.402;37.922;2023-04-06T01:32:03;12.00;67.28
75164;HTU21D;63746;45.402;37.922;2023-04-06T01:34:34;11.99;67.24
75164;HTU21D;63746;45.402;37.922;2023-04-06T01:37:03;11.99;67.28
75164;HTU21D;63746;45.402;37.922;2023-04-06T01:39:30;12.00;67.36
75164;HTU21D;63746;45.402;37.922;2023-04-06T01:41:57;11.99;67.20
75164;HTU21D;63746;45.402;37.922;2023-04-06T01:44:23;11.99;67.28
75164;HTU21D;63746;45.402;37.922;2023-04-06T01:47:02;11.97;67.24
75164;HTU21D;63746;45.402;37.922;2023-04-06T01:49:28;11.97;67.22
75164;HTU21D;63746;45.402;37.922;2023-04-06T01:51:55;11.98;67.25
75164;HTU21D;63746;45.402;37.922;2023-04-06T01:54:21;11.99;67.22
75164;HTU21D;63746;45.402;37.922;2023-04-06T01:57:10;12.02;67.33
75164;HTU21D;63746;45.402;37.922;2023-04-06T01:59:59;12.01;67.23
75164;HTU21D;63746;45.402;37.922;2023-04-06T02:02:39;12.02;67.23
75164;HTU21D;63746;45.402;37.922;2023-04-06T02:05:10;11.99;67.30
75164;HTU21D;63746;45.402;37.922;2023-04-06T02:07:37;11.94;67.12
75164;HTU21D;63746;45.402;37.922;2023-04-06T02:10:03;11.89;67.13
75164;HTU21D;63746;45.402;37.922;2023-04-06T02:12:36;11.86;67.14
75164;HTU21D;63746;45.402;37.922;2023-04-06T02:15:05;11.88;67.24
75164;HTU21D;63746;45.402;37.922;2023-04-06T02:17:31;11.85;67.16
75164;HTU21D;63746;45.402;37.922;2023-04-06T02:19:57;11.85;67.19
75164;HTU21D;63746;45.402;37.922;2023-04-06T02:22:22;11.87;67.23
75164;HTU21D;63746;45.402;37.922;2023-04-06T02:24:48;11.88;67.22
75164;HTU21D;63746;45.402;37.922;2023-04-06T02:27:15;11.88;67.18
75164;HTU21D;63746;45.402;37.922;2023-04-06T02:29:45;11.88;67.20
75164;HTU21D;63746;45.402;37.922;2023-04-06T02:32:12;11.90;67.18
75164;HTU21D;63746;45.402;37.922;2023-04-06T02:34:38;11.91;67.15
75164;HTU21D;63746;45.402;37.922;2023-04-06T02:37:04;11.91;67.11
75164;HTU21D;63746;45.402;37.922;2023-04-06T02:39:31;11.92;67.07
75164;HTU21D;63746;45.402;37.922;2023-04-06T02:41:57;11.90;67.05
75164;HTU21D;63746;45.402;37.922;2023-04-06T02:44:25;11.90;67.07
75164;HTU21D;63746;45.402;37.922;2023-04-06T02:46:51;11.91;67.09
75164;HTU21D;63746;45.402;37.922;2023-04-06T02:49:17;11.92;67.10
75164;HTU21D;63746;45.402;37.922;2023-04-06T02:51:44;11.93;67.04
75164;HTU21D;63746;45.402;37.922;2023-04-06T02:54:21;11.92;67.04
75164;HTU21D;63746;45.402;37.922;2023-04-06T02:56:47;11.93;67.07
75164;HTU21D;63746;45.402;37.922;2023-04-06T02:59:13;11.94;67.06
75164;HTU21D;63746;45.402;37.922;2023-04-06T03:01:45;11.94;67.03
75164;HTU21D;63746;45.402;37.922;2023-04-06T03:04:11;11.92;66.98
75164;HTU21D;63746;45.402;37.922;2023-04-06T03:06:38;11.90;66.96
75164;HTU21D;63746;45.402;37.922;2023-04-06T03:09:14;11.89;66.99
75164;HTU21D;63746;45.402;37.922;2023-04-06T03:11:42;11.90;67.01
75164;HTU21D;63746;45.402;37.922;2023-04-06T03:14:08;11.87;66.95
75164;HTU21D;63746;45.402;37.922;2023-04-06T03:16:34;11.87;67.01
75164;HTU21D;63746;45.402;37.922;2023-04-06T03:19:01;11.86;66.98
75164;HTU21D;63746;45.402;37.922;2023-04-06T03:21:31;11.87;67.04
75164;HTU21D;63746;45.402;37.922;2023-04-06T03:23:57;11.85;67.02
75164;HTU21D;63746;45.402;37.922;2023-04-06T03:26:23;11.85;67.05
75164;HTU21D;63746;45.402;37.922;2023-04-06T03:28:51;11.85;67.06
75164;HTU21D;63746;45.402;37.922;2023-04-06T03:31:20;11.86;67.10
75164;HTU21D;63746;45.402;37.922;2023-04-06T03:33:55;11.86;67.10
75164;HTU21D;63746;45.402;37.922;2023-04-06T03:36:28;11.86;67.14
75164;HTU21D;63746;45.402;37.922;2023-04-06T03:38:56;11.84;67.05
75164;HTU21D;63746;45.402;37.922;2023-04-06T03:41:22;11.84;67.13
75164;HTU21D;63746;45.402;37.922;2023-04-06T03:44:08;11.82;67.09
75164;HTU21D;63746;45.402;37.922;2023-04-06T03:46:36;11.79;67.10
75164;HTU21D;63746;45.402;37.922;2023-04-06T03:49:02;11.78;67.12
75164;HTU21D;63746;45.402;37.922;2023-04-06T03:51:28;11.79;67.23
75164;HTU21D;63746;45.402;37.922;2023-04-06T03:53:54;11.78;67.20
75164;HTU21D;63746;45.402;37.922;2023-04-06T03:56:20;11.77;67.19
75164;HTU21D;63746;45.402;37.922;2023-04-06T03:58:46;11.77;67.21
75164;HTU21D;63746;45.402;37.922;2023-04-06T04:01:17;11.79;67.25
75164;HTU21D;63746;45.402;37.922;2023-04-06T04:03:44;11.82;67.30
75164;HTU21D;63746;45.402;37.922;2023-04-06T04:06:10;11.79;67.25
75164;HTU21D;63746;45.402;37.922;2023-04-06T04:08:35;11.84;67.29
75164;HTU21D;63746;45.402;37.922;2023-04-06T04:11:01;11.85;67.27
75164;HTU21D;63746;45.402;37.922;2023-04-06T04:13:28;11.82;67.24
75164;HTU21D;63746;45.402;37.922;2023-04-06T04:15:54;11.81;67.17
75164;HTU21D;63746;45.402;37.922;2023-04-06T04:18:20;11.78;67.21
75164;HTU21D;63746;45.402;37.922;2023-04-06T04:20:46;11.77;67.17
75164;HTU21D;63746;45.402;37.922;2023-04-06T04:23:12;11.75;67.25
75164;HTU21D;63746;45.402;37.922;2023-04-06T04:25:38;11.75;67.36
75164;HTU21D;63746;45.402;37.922;2023-04-06T04:28:04;11.75;67.42
75164;HTU21D;63746;45.402;37.922;2023-04-06T04:30:30;11.72;67.26
75164;HTU21D;63746;45.402;37.922;2023-04-06T04:32:56;11.71;67.25
75164;HTU21D;63746;45.402;37.922;2023-04-06T04:35:23;11.75;67.35
75164;HTU21D;63746;45.402;37.922;2023-04-06T04:37:50;11.73;67.39
75164;HTU21D;63746;45.402;37.922;2023-04-06T04:40:17;11.73;67.32
75164;HTU21D;63746;45.402;37.922;2023-04-06T04:42:54;11.75;67.36
75164;HTU21D;63746;45.402;37.922;2023-04-06T04:45:33;11.76;67.36
75164;HTU21D;63746;45.402;37.922;2023-04-06T04:48:06;11.76;67.36
75164;HTU21D;63746;45.402;37.922;2023-04-06T04:50:45;11.76;67.40
75164;HTU21D;63746;45.402;37.922;2023-04-06T04:53:13;11.77;67.32
75164;HTU21D;63746;45.402;37.922;2023-04-06T04:55:40;11.76;67.39
75164;HTU21D;63746;45.402;37.922;2023-04-06T04:58:07;11.79;67.46
75164;HTU21D;63746;45.402;37.922;2023-04-06T05:01:03;11.79;67.36
75164;HTU21D;63746;45.402;37.922;2023-04-06T05:03:30;11.81;67.44
75164;HTU21D;63746;45.402;37.922;2023-04-06T05:06:03;11.79;67.36
75164;HTU21D;63746;45.402;37.922;2023-04-06T05:08:33;11.78;67.33
75164;HTU21D;63746;45.402;37.922;2023-04-06T05:11:00;11.76;67.40
75164;HTU21D;63746;45.402;37.922;2023-04-06T05:13:30;11.74;67.30
75164;HTU21D;63746;45.402;37.922;2023-04-06T05:15:57;11.73;67.39
75164;HTU21D;63746;45.402;37.922;2023-04-06T05:18:27;11.70;67.59
75164;HTU21D;63746;45.402;37.922;2023-04-06T05:20:55;11.70;67.37
75164;HTU21D;63746;45.402;37.922;2023-04-06T05:23:28;11.69;67.47
75164;HTU21D;63746;45.402;37.922;2023-04-06T05:25:54;11.69;67.43
75164;HTU21D;63746;45.402;37.922;2023-04-06T05:28:22;11.68;67.48
75164;HTU21D;63746;45.402;37.922;2023-04-06T05:30:48;11.68;67.46
75164;HTU21D;63746;45.402;37.922;2023-04-06T05:33:15;11.68;67.65
75164;HTU21D;63746;45.402;37.922;2023-04-06T05:36:02;11.67;67.53
75164;HTU21D;63746;45.402;37.922;2023-04-06T05:38:29;11.66;67.46
75164;HTU21D;63746;45.402;37.922;2023-04-06T05:41:00;11.67;67.61
75164;HTU21D;63746;45.402;37.922;2023-04-06T05:43:30;11.68;67.60
75164;HTU21D;63746;45.402;37.922;2023-04-06T05:45:58;11.70;67.55
75164;HTU21D;63746;45.402;37.922;2023-04-06T05:48:25;11.69;67.52
75164;HTU21D;63746;45.402;37.922;2023-04-06T05:50:51;11.69;67.48
75164;HTU21D;63746;45.402;37.922;2023-04-06T05:53:22;11.67;67.66
75164;HTU21D;63746;45.402;37.922;2023-04-06T05:55:54;11.66;67.61
75164;HTU21D;63746;45.402;37.922;2023-04-06T05:58:21;11.63;67.71
75164;HTU21D;63746;45.402;37.922;2023-04-06T06:00:49;11.61;67.76
75164;HTU21D;63746;45.402;37.922;2023-04-06T06:03:18;11.63;67.65
75164;HTU21D;63746;45.402;37.922;2023-04-06T06:05:50;11.66;67.75
75164;HTU21D;63746;45.402;37.922;2023-04-06T06:08:23;11.66;67.74
75164;HTU21D;63746;45.402;37.922;2023-04-06T06:10:50;11.66;67.59
75164;HTU21D;63746;45.402;37.922;2023-04-06T06:13:19;11.68;68.10
75164;HTU21D;63746;45.402;37.922;2023-04-06T06:15:46;11.66;67.54
75164;HTU21D;63746;45.402;37.922;2023-04-06T06:18:13;11.66;67.63
75164;HTU21D;63746;45.402;37.922;2023-04-06T06:20:39;11.66;67.61
75164;HTU21D;63746;45.402;37.922;2023-04-06T06:23:05;11.70;67.72
75164;HTU21D;63746;45.402;37.922;2023-04-06T06:25:32;11.72;67.67
75164;HTU21D;63746;45.402;37.922;2023-04-06T06:27:59;11.76;67.71
75164;HTU21D;63746;45.402;37.922;2023-04-06T06:30:27;11.78;67.70
75164;HTU21D;63746;45.402;37.922;2023-04-06T06:32:53;11.81;67.62
75164;HTU21D;63746;45.402;37.922;2023-04-06T06:35:18;11.84;67.63
75164;HTU21D;63746;45.402;37.922;2023-04-06T06:37:46;11.88;67.68
75164;HTU21D;63746;45.402;37.922;2023-04-06T06:40:15;11.92;67.61
75164;HTU21D;63746;45.402;37.922;2023-04-06T06:42:44;11.94;67.50
75164;HTU21D;63746;45.402;37.922;2023-04-06T06:45:20;11.97;67.49
75164;HTU21D;63746;45.402;37.922;2023-04-06T06:47:46;11.98;67.40
75164;HTU21D;63746;45.402;37.922;2023-04-06T06:50:12;11.98;67.36
75164;HTU21D;63746;45.402;37.922;2023-04-06T06:52:39;12.01;67.47
75164;HTU21D;63746;45.402;37.922;2023-04-06T06:55:06;12.02;67.36
75164;HTU21D;63746;45.402;37.922;2023-04-06T06:57:32;12.00;67.23
75164;HTU21D;63746;45.402;37.922;2023-04-06T06:59:58;11.98;67.23
75164;HTU21D;63746;45.402;37.922;2023-04-06T07:02:26;11.96;67.20
75164;HTU21D;63746;45.402;37.922;2023-04-06T07:04:52;11.97;67.27
75164;HTU21D;63746;45.402;37.922;2023-04-06T07:07:18;11.94;67.33
75164;HTU21D;63746;45.402;37.922;2023-04-06T07:09:44;11.94;67.30
75164;HTU21D;63746;45.402;37.922;2023-04-06T07:12:10;11.93;67.29
75164;HTU21D;63746;45.402;37.922;2023-04-06T07:14:36;11.96;67.30
75164;HTU21D;63746;45.402;37.922;2023-04-06T07:17:02;11.97;67.37
75164;HTU21D;63746;45.402;37.922;2023-04-06T07:19:28;11.98;67.36
75164;HTU21D;63746;45.402;37.922;2023-04-06T07:21:55;11.99;67.40
75164;HTU21D;63746;45.402;37.922;2023-04-06T07:24:21;12.03;67.49
75164;HTU21D;63746;45.402;37.922;2023-04-06T07:26:47;12.08;67.54
75164;HTU21D;63746;45.402;37.922;2023-04-06T07:29:13;12.13;67.69
75164;HTU21D;63746;45.402;37.922;2023-04-06T07:31:40;12.19;67.53
75164;HTU21D;63746;45.402;37.922;2023-04-06T07:34:06;12.22;67.55
75164;HTU21D;63746;45.402;37.922;2023-04-06T07:36:32;12.27;67.68
75164;HTU21D;63746;45.402;37.922;2023-04-06T07:38:58;12.27;67.37
75164;HTU21D;63746;45.402;37.922;2023-04-06T07:41:24;12.27;67.40
75164;HTU21D;63746;45.402;37.922;2023-04-06T07:43:51;12.26;67.33
75164;HTU21D;63746;45.402;37.922;2023-04-06T07:46:17;12.23;67.39
75164;HTU21D;63746;45.402;37.922;2023-04-06T07:48:43;12.20;67.27
75164;HTU21D;63746;45.402;37.922;2023-04-06T07:51:09;12.18;67.27
75164;HTU21D;63746;45.402;37.922;2023-04-06T07:53:40;12.16;67.30
75164;HTU21D;63746;45.402;37.922;2023-04-06T07:56:06;12.15;67.27
75164;HTU21D;63746;45.402;37.922;2023-04-06T07:58:32;12.16;67.36
75164;HTU21D;63746;45.402;37.922;2023-04-06T08:00:58;12.18;67.47
75164;HTU21D;63746;45.402;37.922;2023-04-06T08:03:25;12.19;67.43
75164;HTU21D;63746;45.402;37.922;2023-04-06T08:05:52;12.23;67.52
75164;HTU21D;63746;45.402;37.922;2023-04-06T08:08:18;12.26;67.50
75164;HTU21D;63746;45.402;37.922;2023-04-06T08:10:45;12.30;67.52
75164;HTU21D;63746;45.402;37.922;2023-04-06T08:13:11;12.40;67.68
75164;HTU21D;63746;45.402;37.922;2023-04-06T08:15:37;12.51;67.79
75164;HTU21D;63746;45.402;37.922;2023-04-06T08:18:03;12.63;67.78
75164;HTU21D;63746;45.402;37.922;2023-04-06T08:20:29;12.73;67.62
75164;HTU21D;63746;45.402;37.922;2023-04-06T08:22:55;12.81;67.55
75164;HTU21D;63746;45.402;37.922;2023-04-06T08:25:20;12.90;67.55
75164;HTU21D;63746;45.402;37.922;2023-04-06T08:27:46;12.99;67.47
75164;HTU21D;63746;45.402;37.922;2023-04-06T08:30:12;13.02;67.28
75164;HTU21D;63746;45.402;37.922;2023-04-06T08:32:40;13.01;67.07
75164;HTU21D;63746;45.402;37.922;2023-04-06T08:35:07;13.01;67.00
75164;HTU21D;63746;45.402;37.922;2023-04-06T08:37:33;13.00;66.93
75164;HTU21D;63746;45.402;37.922;2023-04-06T08:39:59;12.99;67.00
75164;HTU21D;63746;45.402;37.922;2023-04-06T08:42:26;12.99;66.94
75164;HTU21D;63746;45.402;37.922;2023-04-06T08:44:54;12.95;66.83
75164;HTU21D;63746;45.402;37.922;2023-04-06T08:47:21;12.92;66.80
75164;HTU21D;63746;45.402;37.922;2023-04-06T08:49:47;12.89;66.88
75164;HTU21D;63746;45.402;37.922;2023-04-06T08:52:16;12.90;67.02
75164;HTU21D;63746;45.402;37.922;2023-04-06T08:54:43;12.93;67.10
75164;HTU21D;63746;45.402;37.922;2023-04-06T08:57:09;12.96;67.07
75164;HTU21D;63746;45.402;37.922;2023-04-06T08:59:36;13.00;67.15
75164;HTU21D;63746;45.402;37.922;2023-04-06T09:02:06;13.04;67.07
75164;HTU21D;63746;45.402;37.922;2023-04-06T09:04:35;13.05;67.01
75164;HTU21D;63746;45.402;37.922;2023-04-06T09:07:01;13.08;67.03
75164;HTU21D;63746;45.402;37.922;2023-04-06T09:09:27;13.10;67.02
75164;HTU21D;63746;45.402;37.922;2023-04-06T09:11:53;13.14;66.95
75164;HTU21D;63746;45.402;37.922;2023-04-06T09:14:37;13.12;66.89
75164;HTU21D;63746;45.402;37.922;2023-04-06T09:17:04;13.09;66.78
75164;HTU21D;63746;45.402;37.922;2023-04-06T09:19:30;13.10;66.86
75164;HTU21D;63746;45.402;37.922;2023-04-06T09:22:06;13.12;66.94
75164;HTU21D;63746;45.402;37.922;2023-04-06T09:24:46;13.15;66.92
75164;HTU21D;63746;45.402;37.922;2023-04-06T09:27:13;13.14;66.81
75164;HTU21D;63746;45.402;37.922;2023-04-06T09:29:40;13.15;66.95
75164;HTU21D;63746;45.402;37.922;2023-04-06T09:32:08;13.21;67.02
75164;HTU21D;63746;45.402;37.922;2023-04-06T09:34:40;13.27;67.04
75164;HTU21D;63746;45.402;37.922;2023-04-06T09:37:16;13.33;67.05
75164;HTU21D;63746;45.402;37.922;2023-04-06T09:39:44;13.38;67.04
75164;HTU21D;63746;45.402;37.922;2023-04-06T09:42:22;13.45;67.11
75164;HTU21D;63746;45.402;37.922;2023-04-06T09:44:49;13.55;67.20
75164;HTU21D;63746;45.402;37.922;2023-04-06T09:47:15;13.66;67.17
75164;HTU21D;63746;45.402;37.922;2023-04-06T09:49:43;13.75;67.11
75164;HTU21D;63746;45.402;37.922;2023-04-06T09:52:11;13.81;67.05
75164;HTU21D;63746;45.402;37.922;2023-04-06T09:54:38;13.89;66.95
75164;HTU21D;63746;45.402;37.922;2023-04-06T09:59:58;13.99;66.83
75164;HTU21D;63746;45.402;37.922;2023-04-06T10:02:42;14.01;66.70
75164;HTU21D;63746;45.402;37.922;2023-04-06T10:05:35;14.00;66.62
75164;HTU21D;63746;45.402;37.922;2023-04-06T10:08:08;13.98;66.59
75164;HTU21D;63746;45.402;37.922;2023-04-06T10:10:35;13.99;66.63
75164;HTU21D;63746;45.402;37.922;2023-04-06T10:13:01;13.96;66.49
75164;HTU21D;63746;45.402;37.922;2023-04-06T10:15:28;13.92;66.36
75164;HTU21D;63746;45.402;37.922;2023-04-06T10:17:56;13.86;66.36
75164;HTU21D;63746;45.402;37.922;2023-04-06T10:23:52;13.76;66.34
75164;HTU21D;63746;45.402;37.922;2023-04-06T10:26:00;13.70;66.32
75164;HTU21D;63746;45.402;37.922;2023-04-06T10:28:32;13.63;66.36
75164;HTU21D;63746;45.402;37.922;2023-04-06T10:31:02;13.60;66.43
75164;HTU21D;63746;45.402;37.922;2023-04-06T10:33:28;13.56;66.46
75164;HTU21D;63746;45.402;37.922;2023-04-06T10:35:54;13.55;66.58
75164;HTU21D;63746;45.402;37.922;2023-04-06T10:38:37;13.55;66.66
75164;HTU21D;63746;45.402;37.922;2023-04-06T10:41:08;13.53;66.57
75164;HTU21D;63746;45.402;37.922;2023-04-06T10:43:38;13.51;66.56
75164;HTU21D;63746;45.402;37.922;2023-04-06T10:46:06;13.51;66.56
75164;HTU21D;63746;45.402;37.922;2023-04-06T10:48:43;13.51;66.63
75164;HTU21D;63746;45.402;37.922;2023-04-06T10:51:15;13.51;66.58
75164;HTU21D;63746;45.402;37.922;2023-04-06T10:53:43;13.50;66.56
75164;HTU21D;63746;45.402;37.922;2023-04-06T10:56:10;13.48;66.53
75164;HTU21D;63746;45.402;37.922;2023-04-06T10:58:51;13.46;66.53
75164;HTU21D;63746;45.402;37.922;2023-04-06T11:01:19;13.44;66.61
75164;HTU21D;63746;45.402;37.922;2023-04-06T11:03:53;13.46;66.66
75164;HTU21D;63746;45.402;37.922;2023-04-06T11:06:23;13.49;66.74
75164;HTU21D;63746;45.402;37.922;2023-04-06T11:08:49;13.50;66.68
75164;HTU21D;63746;45.402;37.922;2023-04-06T11:11:17;13.52;66.63
75164;HTU21D;63746;45.402;37.922;2023-04-06T11:13:46;13.51;66.69
75164;HTU21D;63746;45.402;37.922;2023-04-06T11:16:16;13.54;66.65
75164;HTU21D;63746;45.402;37.922;2023-04-06T11:18:55;13.56;66.67
75164;HTU21D;63746;45.402;37.922;2023-04-06T11:21:41;13.58;66.65
75164;HTU21D;63746;45.402;37.922;2023-04-06T11:24:15;13.59;66.72
75164;HTU21D;63746;45.402;37.922;2023-04-06T11:26:59;13.63;66.73
75164;HTU21D;63746;45.402;37.922;2023-04-06T11:29:28;13.65;66.75
75164;HTU21D;63746;45.402;37.922;2023-04-06T11:31:59;13.67;66.68
75164;HTU21D;63746;45.402;37.922;2023-04-06T11:34:27;13.69;66.65
75164;HTU21D;63746;45.402;37.922;2023-04-06T11:36:58;13.73;66.72
75164;HTU21D;63746;45.402;37.922;2023-04-06T11:39:26;13.76;66.67
75164;HTU21D;63746;45.402;37.922;2023-04-06T11:41:54;13.77;66.58
75164;HTU21D;63746;45.402;37.922;2023-04-06T11:44:49;13.78;66.49
75164;HTU21D;63746;45.402;37.922;2023-04-06T11:47:15;13.77;66.51
75164;HTU21D;63746;45.402;37.922;2023-04-06T11:49:43;13.77;66.61
75164;HTU21D;63746;45.402;37.922;2023-04-06T11:52:18;13.78;66.66
75164;HTU21D;63746;45.402;37.922;2023-04-06T11:54:45;13.84;66.71
75164;HTU21D;63746;45.402;37.922;2023-04-06T11:57:11;13.86;66.63
75164;HTU21D;63746;45.402;37.922;2023-04-06T11:59:37;13.89;66.56
75164;HTU21D;63746;45.402;37.922;2023-04-06T12:02:03;13.90;66.55
75164;HTU21D;63746;45.402;37.922;2023-04-06T12:04:30;13.95;66.62
75164;HTU21D;63746;45.402;37.922;2023-04-06T12:06:57;13.99;66.60
75164;HTU21D;63746;45.402;37.922;2023-04-06T12:09:23;14.04;66.56
75164;HTU21D;63746;45.402;37.922;2023-04-06T12:11:49;14.07;66.55
75164;HTU21D;63746;45.402;37.922;2023-04-06T12:14:15;14.11;66.52
75164;HTU21D;63746;45.402;37.922;2023-04-06T12:16:41;14.14;66.43
75164;HTU21D;63746;45.402;37.922;2023-04-06T12:19:08;14.17;66.39
75164;HTU21D;63746;45.402;37.922;2023-04-06T12:21:34;14.18;66.30
75164;HTU21D;63746;45.402;37.922;2023-04-06T12:24:03;14.15;66.26
75164;HTU21D;63746;45.402;37.922;2023-04-06T12:26:29;14.13;66.24
75164;HTU21D;63746;45.402;37.922;2023-04-06T12:28:56;14.09;66.27
75164;HTU21D;63746;45.402;37.922;2023-04-06T12:31:22;14.07;66.26
75164;HTU21D;63746;45.402;37.922;2023-04-06T12:33:50;14.01;66.22
75164;HTU21D;63746;45.402;37.922;2023-04-06T12:36:18;13.96;66.26
75164;HTU21D;63746;45.402;37.922;2023-04-06T12:38:48;13.92;66.31
75164;HTU21D;63746;45.402;37.922;2023-04-06T12:41:14;13.89;66.40
75164;HTU21D;63746;45.402;37.922;2023-04-06T12:43:41;13.88;66.40
75164;HTU21D;63746;45.402;37.922;2023-04-06T12:46:08;13.83;66.43
75164;HTU21D;63746;45.402;37.922;2023-04-06T12:48:34;13.80;66.43
75164;HTU21D;63746;45.402;37.922;2023-04-06T12:51:02;13.77;66.43
75164;HTU21D;63746;45.402;37.922;2023-04-06T12:53:28;13.71;66.45
75164;HTU21D;63746;45.402;37.922;2023-04-06T12:55:55;13.68;66.53
75164;HTU21D;63746;45.402;37.922;2023-04-06T12:58:22;13.66;66.54
75164;HTU21D;63746;45.402;37.922;2023-04-06T13:00:50;13.65;66.54
75164;HTU21D;63746;45.402;37.922;2023-04-06T13:03:18;13.62;66.59
75164;HTU21D;63746;45.402;37.922;2023-04-06T13:05:48;13.61;66.62
75164;HTU21D;63746;45.402;37.922;2023-04-06T13:08:15;13.58;66.62
75164;HTU21D;63746;45.402;37.922;2023-04-06T13:10:48;13.55;66.69
75164;HTU21D;63746;45.402;37.922;2023-04-06T13:13:15;13.55;66.66
75164;HTU21D;63746;45.402;37.922;2023-04-06T13:15:41;13.52;66.56
75164;HTU21D;63746;45.402;37.922;2023-04-06T13:18:08;13.46;66.58
75164;HTU21D;63746;45.402;37.922;2023-04-06T13:20:35;13.40;66.64
75164;HTU21D;63746;45.402;37.922;2023-04-06T13:23:01;13.38;66.75
75164;HTU21D;63746;45.402;37.922;2023-04-06T13:25:27;13.38;66.78
75164;HTU21D;63746;45.402;37.922;2023-04-06T13:27:57;13.37;66.77
75164;HTU21D;63746;45.402;37.922;2023-04-06T13:30:23;13.34;66.72
75164;HTU21D;63746;45.402;37.922;2023-04-06T13:32:50;13.27;66.72
75164;HTU21D;63746;45.402;37.922;2023-04-06T13:35:16;13.25;66.74
75164;HTU21D;63746;45.402;37.922;2023-04-06T13:37:43;13.21;66.81
75164;HTU21D;63746;45.402;37.922;2023-04-06T13:40:10;13.21;66.89
75164;HTU21D;63746;45.402;37.922;2023-04-06T13:42:36;13.20;66.89
75164;HTU21D;63746;45.402;37.922;2023-04-06T13:45:06;13.17;66.85
75164;HTU21D;63746;45.402;37.922;2023-04-06T13:47:32;13.15;66.89
75164;HTU21D;63746;45.402;37.922;2023-04-06T13:49:58;13.14;66.90
75164;HTU21D;63746;45.402;37.922;2023-04-06T13:52:25;13.12;66.91
75164;HTU21D;63746;45.402;37.922;2023-04-06T13:54:52;13.12;66.87
75164;HTU21D;63746;45.402;37.922;2023-04-06T13:57:18;13.10;66.84
75164;HTU21D;63746;45.402;37.922;2023-04-06T13:59:44;13.08;66.83
75164;HTU21D;63746;45.402;37.922;2023-04-06T14:02:10;13.03;66.81
75164;HTU21D;63746;45.402;37.922;2023-04-06T14:04:36;13.02;66.87
75164;HTU21D;63746;45.402;37.922;2023-04-06T14:07:03;12.97;66.85
75164;HTU21D;63746;45.402;37.922;2023-04-06T14:09:33;12.96;66.89
75164;HTU21D;63746;45.402;37.922;2023-04-06T14:11:59;12.96;66.90
75164;HTU21D;63746;45.402;37.922;2023-04-06T14:14:25;12.95;66.85
75164;HTU21D;63746;45.402;37.922;2023-04-06T14:16:52;12.92;66.86
75164;HTU21D;63746;45.402;37.922;2023-04-06T14:19:18;12.93;66.85
75164;HTU21D;63746;45.402;37.922;2023-04-06T14:21:45;12.91;66.80
75164;HTU21D;63746;45.402;37.922;2023-04-06T14:24:11;12.90;66.83
75164;HTU21D;63746;45.402;37.922;2023-04-06T14:26:39;12.90;66.90
75164;HTU21D;63746;45.402;37.922;2023-04-06T14:29:05;12.90;66.87
75164;HTU21D;63746;45.402;37.922;2023-04-06T14:31:31;12.92;66.85
75164;HTU21D;63746;45.402;37.922;2023-04-06T14:34:01;12.89;66.75
75164;HTU21D;63746;45.402;37.922;2023-04-06T14:36:28;12.85;66.69
75164;HTU21D;63746;45.402;37.922;2023-04-06T14:38:57;12.77;66.67
75164;HTU21D;63746;45.402;37.922;2023-04-06T14:41:24;12.70;66.75
75164;HTU21D;63746;45.402;37.922;2023-04-06T14:43:53;12.66;66.85
75164;HTU21D;63746;45.402;37.922;2023-04-06T14:46:19;12.62;66.79
75164;HTU21D;63746;45.402;37.922;2023-04-06T14:48:45;12.57;66.85
75164;HTU21D;63746;45.402;37.922;2023-04-06T14:51:11;12.50;66.93
75164;HTU21D;63746;45.402;37.922;2023-04-06T14:53:37;12.48;67.03
75164;HTU21D;63746;45.402;37.922;2023-04-06T14:56:04;12.44;67.04
75164;HTU21D;63746;45.402;37.922;2023-04-06T14:58:30;12.42;67.07
75164;HTU21D;63746;45.402;37.922;2023-04-06T15:00:57;12.41;67.19
75164;HTU21D;63746;45.402;37.922;2023-04-06T15:03:28;12.41;67.22
75164;HTU21D;63746;45.402;37.922;2023-04-06T15:05:55;12.38;67.15
75164;HTU21D;63746;45.402;37.922;2023-04-06T15:08:23;12.38;67.18
75164;HTU21D;63746;45.402;37.922;2023-04-06T15:10:51;12.35;67.10
75164;HTU21D;63746;45.402;37.922;2023-04-06T15:13:17;12.35;67.20
75164;HTU21D;63746;45.402;37.922;2023-04-06T15:15:44;12.35;67.22
75164;HTU21D;63746;45.402;37.922;2023-04-06T15:18:11;12.35;67.14